Time;durP1;ratioP1;P1;durP2;ratioP2;P2;SDS_P1;SDS_P2;PMS_P1;PMS_P2;Temp;Humidity;BMP_temperature;BMP_pressure;BME280_temperature;BME280_humidity;BME280_pressure;Samples;Min_cycle;Max_cycle;Signal;HPM_P1;HPM_P2
2023/03/24 00:01:16;;;;;;;15.35;6.50;;;11.00;99.90;;;;;;5129009;27;20035;-75
2023/03/24 00:03:47;;;;;;;16.10;7.60;;;11.00;99.90;;;;;;5103794;27;20047;-75
2023/03/24 00:06:13;;;;;;;13.82;6.78;;;11.00;99.90;;;;;;5116870;27;20051;-75
2023/03/24 00:08:42;;;;;;;13.52;5.85;;;11.10;99.90;;;;;;5122040;27;20049;-74
2023/03/24 00:11:10;;;;;;;20.73;6.53;;;11.00;99.90;;;;;;5138934;27;20046;-74
2023/03/24 00:13:37;;;;;;;16.33;6.47;;;11.10;99.90;;;;;;5130560;27;20039;-76
2023/03/24 00:16:05;;;;;;;18.08;6.45;;;11.10;99.90;;;;;;5117545;27;20040;-75
2023/03/24 00:18:31;;;;;;;15.27;6.68;;;11.00;99.90;;;;;;5129143;27;20042;-75
2023/03/24 00:20:57;;;;;;;17.05;6.22;;;11.10;99.90;;;;;;5125606;27;20039;-75
2023/03/24 00:23:31;;;;;;;18.00;6.45;;;11.00;99.90;;;;;;5122691;27;20096;-76
2023/03/24 00:26:11;;;;;;;15.63;6.88;;;11.00;99.90;;;;;;5116971;27;20125;-75
2023/03/24 00:28:37;;;;;;;13.55;6.72;;;11.00;99.90;;;;;;5105305;27;20050;-75
2023/03/24 00:31:05;;;;;;;14.98;7.28;;;11.00;99.90;;;;;;5133700;27;20395;-75
2023/03/24 00:33:33;;;;;;;18.75;7.28;;;11.00;99.90;;;;;;5146210;27;20127;-76
2023/03/24 00:36:00;;;;;;;;;;;11.00;99.90;;;;;;5121394;27;20047;-75
2023/03/24 00:38:25;;;;;;;15.68;6.50;;;11.00;99.90;;;;;;5122256;27;19923;-76
2023/03/24 00:40:52;;;;;;;17.77;6.60;;;11.00;99.90;;;;;;5120628;27;20407;-75
2023/03/24 00:43:18;;;;;;;17.98;6.85;;;11.00;99.90;;;;;;5123447;27;20039;-76
2023/03/24 00:45:46;;;;;;;13.68;6.32;;;11.00;99.90;;;;;;5124871;27;20076;-75
2023/03/24 00:48:14;;;;;;;8.65;5.45;;;11.00;99.90;;;;;;5128141;27;20039;-75
2023/03/24 00:50:44;;;;;;;14.35;7.07;;;11.00;99.90;;;;;;5125241;27;20050;-76
2023/03/24 00:53:10;;;;;;;13.80;6.35;;;11.10;99.90;;;;;;5123639;27;20046;-76
2023/03/24 00:55:36;;;;;;;11.80;6.45;;;11.00;99.90;;;;;;5125490;27;20039;-75
2023/03/24 00:58:03;;;;;;;15.52;6.78;;;11.00;99.90;;;;;;5124802;27;20047;-75
2023/03/24 01:00:28;;;;;;;15.68;6.57;;;10.90;99.90;;;;;;5126380;27;20031;-75
2023/03/24 01:02:56;;;;;;;14.90;6.88;;;10.90;99.90;;;;;;5124687;27;20031;-75
2023/03/24 01:05:26;;;;;;;12.00;5.93;;;11.00;99.90;;;;;;5104258;27;20496;-75
2023/03/24 01:08:01;;;;;;;13.35;6.50;;;10.90;99.90;;;;;;5119197;27;20048;-75
2023/03/24 01:10:27;;;;;;;14.52;6.05;;;10.90;99.90;;;;;;5121440;27;20484;-75
2023/03/24 01:12:58;;;;;;;13.88;6.60;;;10.90;99.90;;;;;;5121464;27;20062;-75
2023/03/24 01:15:32;;;;;;;12.60;6.35;;;11.00;99.90;;;;;;5123940;27;20035;-75
2023/03/24 01:18:01;;;;;;;14.52;6.65;;;10.90;99.90;;;;;;5125750;27;20043;-76
2023/03/24 01:20:31;;;;;;;12.70;6.28;;;10.90;99.90;;;;;;5127439;27;20051;-76
2023/03/24 01:22:58;;;;;;;11.80;5.88;;;11.00;99.90;;;;;;5126573;27;20071;-75
2023/03/24 01:25:24;;;;;;;14.38;7.00;;;10.90;99.90;;;;;;5086361;28;20044;-75
2023/03/24 01:27:51;;;;;;;14.57;6.55;;;10.90;99.90;;;;;;5121545;27;20123;-75
2023/03/24 01:30:21;;;;;;;12.98;6.75;;;10.90;99.90;;;;;;5099608;27;20054;-75
2023/03/24 01:32:46;;;;;;;10.43;6.38;;;10.90;99.90;;;;;;5126834;27;20123;-75
2023/03/24 01:35:12;;;;;;;14.10;6.15;;;10.90;99.90;;;;;;5120489;27;20039;-75
2023/03/24 01:37:39;;;;;;;12.80;6.32;;;11.00;99.90;;;;;;5130567;27;20515;-76
2023/03/24 01:40:08;;;;;;;13.68;6.53;;;10.90;99.90;;;;;;5127976;27;20769;-74
2023/03/24 01:42:35;;;;;;;12.80;6.32;;;11.00;99.90;;;;;;5102985;27;20063;-74
2023/03/24 01:45:38;;;;;;;14.20;6.20;;;11.00;99.90;;;;;;5117177;27;20093;-75
2023/03/24 01:48:19;;;;;;;15.40;6.30;;;11.00;99.90;;;;;;5133069;27;20038;-75
2023/03/24 01:50:54;;;;;;;12.10;5.95;;;10.90;99.90;;;;;;5110714;27;20046;-74
2023/03/24 01:53:21;;;;;;;10.77;5.70;;;11.00;99.90;;;;;;5120329;27;20032;-75
2023/03/24 01:55:47;;;;;;;10.32;6.10;;;10.90;99.90;;;;;;5124928;27;20046;-75
2023/03/24 01:58:13;;;;;;;15.88;6.18;;;10.90;99.90;;;;;;5120287;27;20027;-74
2023/03/24 02:00:40;;;;;;;11.07;6.07;;;11.00;99.90;;;;;;5113479;27;20498;-75
2023/03/24 02:03:11;;;;;;;11.63;5.40;;;11.00;99.90;;;;;;5117135;27;20065;-75
2023/03/24 02:05:38;;;;;;;12.07;5.95;;;10.90;99.90;;;;;;5129303;27;20049;-75
2023/03/24 02:08:27;;;;;;;14.43;6.00;;;11.00;99.90;;;;;;5132102;27;20053;-75
2023/03/24 02:10:54;;;;;;;11.60;6.07;;;10.90;99.90;;;;;;5119766;27;20042;-75
2023/03/24 02:13:22;;;;;;;12.20;5.90;;;11.00;99.90;;;;;;5120230;27;20102;-75
2023/03/24 02:16:11;;;;;;;;;;;11.00;99.90;;;;;;5129789;27;20047;-74
2023/03/24 02:19:25;;;;;;;10.57;5.35;;;11.00;99.90;;;;;;5109155;27;19924;-74
2023/03/24 02:22:28;;;;;;;16.08;6.05;;;11.00;99.90;;;;;;5132226;27;20088;-74
2023/03/24 02:25:14;;;;;;;10.93;5.45;;;11.00;99.90;;;;;;5130841;28;20093;-74
2023/03/24 02:27:57;;;;;;;11.00;6.40;;;11.00;99.90;;;;;;5124768;27;20096;-74
2023/03/24 02:30:39;;;;;;;12.40;5.82;;;11.00;99.90;;;;;;5117875;28;20051;-74
2023/03/24 02:33:16;;;;;;;9.65;6.03;;;11.00;99.90;;;;;;5129903;27;20044;-74
2023/03/24 02:36:06;;;;;;;17.17;6.43;;;11.00;99.90;;;;;;5124061;27;20050;-74
2023/03/24 02:39:03;;;;;;;11.90;6.20;;;11.00;99.90;;;;;;5118489;28;20047;-74
2023/03/24 02:41:40;;;;;;;11.23;5.55;;;11.00;99.90;;;;;;5085323;27;20048;-75
2023/03/24 02:44:29;;;;;;;11.35;6.35;;;11.10;99.90;;;;;;5114991;27;20078;-74
2023/03/24 02:47:15;;;;;;;10.95;6.30;;;11.00;99.90;;;;;;5115773;28;20046;-74
2023/03/24 02:50:15;;;;;;;9.60;5.80;;;11.00;99.90;;;;;;5123115;27;20122;-74
2023/03/24 02:52:50;;;;;;;12.98;6.03;;;11.00;99.90;;;;;;5125793;27;20138;-75
2023/03/24 02:55:25;;;;;;;11.30;6.85;;;11.10;99.90;;;;;;5115033;28;20051;-74
2023/03/24 02:57:56;;;;;;;10.23;5.50;;;11.10;99.90;;;;;;5121409;28;20039;-75
2023/03/24 03:00:31;;;;;;;10.43;6.25;;;11.10;99.90;;;;;;5121672;28;20041;-75
2023/03/24 03:03:22;;;;;;;12.00;5.70;;;11.10;99.90;;;;;;5116281;28;20036;-74
2023/03/24 03:05:57;;;;;;;11.30;6.10;;;11.10;99.90;;;;;;5112960;28;20050;-75
2023/03/24 03:08:26;;;;;;;15.82;6.97;;;11.10;99.90;;;;;;5120038;27;20090;-75
2023/03/24 03:10:53;;;;;;;10.63;5.93;;;11.10;99.90;;;;;;5096807;28;20052;-75
2023/03/24 03:13:26;;;;;;;8.63;5.82;;;11.10;99.90;;;;;;5116932;27;20039;-74
2023/03/24 03:15:57;;;;;;;11.13;6.15;;;11.10;99.90;;;;;;5120172;27;20065;-75
2023/03/24 03:18:52;;;;;;;8.98;5.63;;;11.10;99.90;;;;;;5124603;27;20062;-74
2023/03/24 03:21:22;;;;;;;13.02;5.85;;;11.20;99.90;;;;;;5114687;27;20058;-75
2023/03/24 03:23:56;;;;;;;8.90;5.53;;;11.20;99.90;;;;;;5086454;27;20054;-75
2023/03/24 03:26:25;;;;;;;9.52;5.60;;;11.20;99.90;;;;;;5122160;27;20040;-75
2023/03/24 03:28:56;;;;;;;7.45;5.20;;;11.20;99.90;;;;;;5130189;27;20042;-75
2023/03/24 03:31:30;;;;;;;6.82;4.60;;;11.20;99.90;;;;;;5120895;27;20264;-74
2023/03/24 03:34:19;;;;;;;18.13;5.28;;;11.20;99.90;;;;;;5120794;27;20047;-74
2023/03/24 03:37:07;;;;;;;8.63;4.95;;;11.30;99.90;;;;;;5124970;27;20039;-73
2023/03/24 03:39:39;;;;;;;8.07;3.78;;;11.30;99.90;;;;;;5124293;27;20048;-73
2023/03/24 03:42:05;;;;;;;10.52;4.57;;;11.20;99.90;;;;;;5125499;27;20404;-73
2023/03/24 03:44:31;;;;;;;8.52;4.00;;;11.20;99.90;;;;;;5118547;27;20055;-73
2023/03/24 03:46:57;;;;;;;7.13;3.40;;;11.20;99.90;;;;;;5117013;27;20036;-73
2023/03/24 03:49:24;;;;;;;8.15;3.72;;;11.10;99.90;;;;;;5119848;27;20404;-73
2023/03/24 03:51:51;;;;;;;9.45;3.60;;;11.00;99.90;;;;;;5124260;27;20132;-73
2023/03/24 03:54:18;;;;;;;9.43;4.05;;;10.90;99.90;;;;;;5107133;27;20050;-74
2023/03/24 03:56:45;;;;;;;13.57;4.03;;;10.90;99.90;;;;;;5133547;27;20047;-74
2023/03/24 03:59:24;;;;;;;9.70;3.63;;;10.90;99.90;;;;;;5129408;27;20039;-73
2023/03/24 04:01:50;;;;;;;9.57;3.55;;;10.80;99.90;;;;;;5134835;27;20116;-74
2023/03/24 04:04:46;;;;;;;8.95;3.50;;;10.70;99.90;;;;;;5109204;27;20048;-74
2023/03/24 04:07:27;;;;;;;10.10;3.78;;;10.70;99.90;;;;;;5131443;27;20035;-74
2023/03/24 04:09:55;;;;;;;8.13;3.05;;;10.60;99.90;;;;;;5131008;27;20760;-74
2023/03/24 04:12:21;;;;;;;8.45;3.22;;;10.60;99.90;;;;;;5133865;27;20031;-74
2023/03/24 04:15:08;;;;;;;10.75;2.60;;;10.60;99.90;;;;;;5130058;27;20429;-74
2023/03/24 04:17:37;;;;;;;8.43;2.60;;;10.50;99.90;;;;;;5134701;27;20047;-74
2023/03/24 04:20:05;;;;;;;9.38;2.38;;;10.50;99.90;;;;;;5119885;27;20040;-75
2023/03/24 04:22:49;;;;;;;;;;;10.50;99.90;;;;;;5134344;27;20047;-74
2023/03/24 04:25:22;;;;;;;9.27;2.20;;;10.30;99.90;;;;;;5133393;27;19969;-74
2023/03/24 04:27:50;;;;;;;9.70;2.58;;;10.30;99.90;;;;;;5120705;27;20714;-74
2023/03/24 04:30:36;;;;;;;10.45;2.40;;;10.30;99.90;;;;;;5121317;27;20036;-73
2023/03/24 04:33:39;;;;;;;7.35;2.00;;;10.20;99.90;;;;;;5124745;27;20044;-74
2023/03/24 04:36:28;;;;;;;8.25;1.85;;;10.10;99.90;;;;;;5113509;27;20035;-74
2023/03/24 04:38:56;;;;;;;22.42;3.05;;;10.00;99.90;;;;;;5121751;27;20099;-73
2023/03/24 04:41:25;;;;;;;13.50;2.90;;;9.90;99.90;;;;;;5124805;27;20035;-73
2023/03/24 04:43:53;;;;;;;15.43;2.50;;;9.80;99.90;;;;;;5123121;27;20039;-74
2023/03/24 04:46:20;;;;;;;9.35;3.03;;;9.70;99.90;;;;;;5116955;27;20036;-74
2023/03/24 04:48:49;;;;;;;11.52;2.20;;;9.70;99.90;;;;;;5127359;27;20399;-73
2023/03/24 04:51:17;;;;;;;17.35;2.60;;;9.70;99.90;;;;;;5117300;27;20163;-72
2023/03/24 04:53:44;;;;;;;12.93;2.35;;;9.60;99.90;;;;;;5127834;27;20039;-73
2023/03/24 04:56:55;;;;;;;8.40;2.42;;;9.60;99.90;;;;;;5123833;27;20027;-73
2023/03/24 04:59:21;;;;;;;12.88;2.50;;;9.50;99.90;;;;;;5058764;28;20075;-72
2023/03/24 05:01:50;;;;;;;21.02;2.70;;;9.40;99.90;;;;;;5063534;28;20075;-72
2023/03/24 05:04:22;;;;;;;15.75;2.80;;;9.40;99.90;;;;;;5073053;27;20411;-73
2023/03/24 05:06:48;;;;;;;14.20;2.92;;;9.40;99.90;;;;;;5116197;27;20042;-73
2023/03/24 05:09:16;;;;;;;12.88;2.47;;;9.30;99.90;;;;;;5117111;27;20093;-72
2023/03/24 05:11:42;;;;;;;;;;;9.30;99.90;;;;;;5112109;27;20042;-74
2023/03/24 05:14:09;;;;;;;13.43;2.95;;;9.20;99.90;;;;;;5124640;27;19924;-73
2023/03/24 05:16:35;;;;;;;15.75;3.08;;;9.20;99.90;;;;;;5114422;27;20403;-74
2023/03/24 05:19:01;;;;;;;11.70;2.75;;;9.20;99.90;;;;;;5128702;27;20050;-73
2023/03/24 05:21:27;;;;;;;17.13;2.80;;;9.10;99.90;;;;;;5117029;27;20118;-73
2023/03/24 05:23:53;;;;;;;14.48;2.50;;;9.20;99.90;;;;;;5115530;27;20456;-73
2023/03/24 05:26:18;;;;;;;13.82;3.53;;;9.20;99.90;;;;;;5124699;27;20032;-72
2023/03/24 05:28:44;;;;;;;10.73;2.85;;;9.10;99.90;;;;;;5109700;27;20081;-73
2023/03/24 05:31:10;;;;;;;11.23;3.28;;;9.10;99.90;;;;;;5110515;27;20037;-72
2023/03/24 05:33:36;;;;;;;18.05;3.60;;;9.10;99.90;;;;;;5129653;27;20059;-72
2023/03/24 05:36:02;;;;;;;16.67;3.28;;;9.10;99.90;;;;;;5100867;27;20089;-73
2023/03/24 05:38:27;;;;;;;17.80;3.80;;;9.10;99.90;;;;;;5114517;27;20395;-73
2023/03/24 05:40:57;;;;;;;18.90;3.90;;;9.10;99.90;;;;;;5120297;27;20040;-73
2023/03/24 05:43:23;;;;;;;19.63;4.13;;;9.20;99.90;;;;;;5124733;27;20050;-73
2023/03/24 05:45:49;;;;;;;17.58;4.03;;;9.20;99.90;;;;;;5117507;27;20043;-73
2023/03/24 05:48:15;;;;;;;17.90;2.92;;;9.30;99.90;;;;;;5121383;27;20096;-74
2023/03/24 05:50:40;;;;;;;11.48;3.63;;;9.30;99.90;;;;;;5125894;27;20044;-74
2023/03/24 05:53:06;;;;;;;15.00;4.38;;;9.50;99.90;;;;;;5130957;27;20043;-74
2023/03/24 05:55:32;;;;;;;15.70;4.55;;;9.30;99.90;;;;;;5124424;27;20527;-73
2023/03/24 05:58:00;;;;;;;18.55;3.63;;;9.40;99.90;;;;;;5118722;27;20035;-73
2023/03/24 06:00:27;;;;;;;18.98;4.40;;;9.30;99.90;;;;;;5125313;27;20052;-76
2023/03/24 06:02:53;;;;;;;15.38;3.90;;;9.40;99.90;;;;;;5114148;27;20393;-74
2023/03/24 06:05:19;;;;;;;25.13;4.75;;;9.40;99.90;;;;;;5119337;27;20055;-74
2023/03/24 06:07:45;;;;;;;20.20;5.28;;;9.40;99.90;;;;;;5115226;27;20046;-73
2023/03/24 06:10:13;;;;;;;16.50;3.60;;;9.40;99.90;;;;;;5120285;27;20079;-73
2023/03/24 06:12:40;;;;;;;18.23;4.15;;;9.40;99.90;;;;;;5113462;27;20483;-73
2023/03/24 06:15:07;;;;;;;16.45;3.90;;;9.40;99.90;;;;;;5121289;27;20092;-72
2023/03/24 06:17:32;;;;;;;21.42;4.40;;;9.40;99.90;;;;;;5099668;27;20131;-74
2023/03/24 06:20:10;;;;;;;15.77;3.80;;;9.50;99.90;;;;;;5125770;27;20118;-74
2023/03/24 06:22:37;;;;;;;13.47;3.80;;;9.50;99.90;;;;;;5107452;27;20138;-73
2023/03/24 06:25:03;;;;;;;16.63;3.55;;;9.60;99.90;;;;;;5122366;28;20035;-73
2023/03/24 06:27:29;;;;;;;16.67;4.03;;;9.50;99.90;;;;;;5121659;27;20533;-74
2023/03/24 06:29:56;;;;;;;11.38;3.40;;;9.50;99.90;;;;;;5119168;27;20047;-74
2023/03/24 06:32:22;;;;;;;18.25;3.65;;;9.60;99.90;;;;;;5119322;27;20050;-73
2023/03/24 06:34:47;;;;;;;16.35;3.47;;;9.50;99.90;;;;;;5115878;28;20037;-73
2023/03/24 06:37:13;;;;;;;15.63;3.65;;;9.50;99.90;;;;;;5117489;28;20036;-73
2023/03/24 06:39:39;;;;;;;19.85;3.97;;;9.50;99.90;;;;;;5114931;27;20484;-74
2023/03/24 06:42:05;;;;;;;21.00;3.85;;;9.50;99.90;;;;;;5116467;27;20810;-72
2023/03/24 06:44:31;;;;;;;17.23;3.10;;;9.50;99.90;;;;;;5117892;27;20517;-73
2023/03/24 06:46:57;;;;;;;17.83;3.78;;;9.50;99.90;;;;;;5117260;27;20542;-73
2023/03/24 06:49:23;;;;;;;23.42;3.90;;;9.60;99.90;;;;;;5125612;27;20046;-74
2023/03/24 06:51:49;;;;;;;17.08;3.33;;;9.50;99.90;;;;;;5113512;27;20101;-73
2023/03/24 06:54:15;;;;;;;16.80;3.50;;;9.60;99.90;;;;;;5102385;28;20044;-73
2023/03/24 06:56:41;;;;;;;17.15;3.92;;;9.50;99.90;;;;;;5107426;28;20672;-74
2023/03/24 06:59:07;;;;;;;21.42;3.38;;;9.50;99.90;;;;;;5107139;28;20472;-74
2023/03/24 07:01:37;;;;;;;21.67;3.90;;;9.60;99.90;;;;;;5120463;27;20046;-74
2023/03/24 07:04:03;;;;;;;17.48;3.20;;;9.70;99.90;;;;;;5103092;27;20081;-73
2023/03/24 07:06:29;;;;;;;17.98;3.58;;;9.60;99.90;;;;;;5116305;28;20134;-73
2023/03/24 07:08:56;;;;;;;24.35;4.25;;;9.70;99.90;;;;;;5117161;27;20043;-73
2023/03/24 07:11:22;;;;;;;24.48;4.22;;;9.70;99.90;;;;;;5100481;28;20380;-73
2023/03/24 07:13:48;;;;;;;19.30;3.45;;;9.80;99.90;;;;;;5110361;28;20040;-72
2023/03/24 07:16:13;;;;;;;18.23;3.72;;;9.70;99.90;;;;;;5096523;27;20032;-74
2023/03/24 07:18:39;;;;;;;19.70;3.15;;;9.70;99.90;;;;;;5106346;27;20039;-73
2023/03/24 07:21:05;;;;;;;18.40;3.50;;;9.70;99.90;;;;;;5120655;27;20035;-73
2023/03/24 07:23:31;;;;;;;23.85;3.40;;;9.80;99.90;;;;;;5074955;28;20177;-73
2023/03/24 07:25:57;;;;;;;18.98;4.03;;;9.80;99.90;;;;;;5096414;28;20047;-74
2023/03/24 07:28:23;;;;;;;23.10;4.07;;;9.80;99.90;;;;;;5110542;28;20055;-73
2023/03/24 07:30:49;;;;;;;22.05;3.83;;;9.80;99.90;;;;;;5107131;28;20389;-73
2023/03/24 07:33:15;;;;;;;19.23;4.63;;;9.70;99.90;;;;;;5106390;28;20118;-72
2023/03/24 07:35:41;;;;;;;19.58;4.22;;;9.80;99.90;;;;;;5107053;28;20382;-73
2023/03/24 07:38:07;;;;;;;19.95;3.75;;;9.80;99.90;;;;;;5105001;28;20050;-73
2023/03/24 07:40:34;;;;;;;18.58;4.18;;;9.90;99.90;;;;;;5108494;28;20032;-72
2023/03/24 07:43:01;;;;;;;17.20;4.32;;;9.90;99.90;;;;;;5094799;28;20456;-72
2023/03/24 07:45:27;;;;;;;22.30;3.55;;;9.90;99.90;;;;;;5077155;28;20435;-73
2023/03/24 07:47:53;;;;;;;20.25;3.78;;;10.00;99.90;;;;;;5098008;28;20044;-73
2023/03/24 07:50:19;;;;;;;22.48;4.32;;;9.90;99.90;;;;;;5114701;28;20051;-73
2023/03/24 07:52:49;;;;;;;22.40;4.05;;;10.00;99.90;;;;;;5117512;27;20048;-73
2023/03/24 07:55:15;;;;;;;16.88;4.43;;;10.00;99.90;;;;;;5135322;27;20460;-73
2023/03/24 07:57:48;;;;;;;21.75;3.78;;;10.00;99.90;;;;;;5134791;27;20399;-73
2023/03/24 08:00:16;;;;;;;21.33;3.53;;;10.00;99.90;;;;;;5134121;27;20071;-73
2023/03/24 08:02:44;;;;;;;23.60;5.05;;;10.10;99.90;;;;;;5129323;27;20035;-74
2023/03/24 08:05:13;;;;;;;29.75;4.10;;;10.10;99.90;;;;;;5124385;27;20038;-73
2023/03/24 08:07:41;;;;;;;24.42;4.35;;;10.10;99.90;;;;;;5125465;27;20039;-74
2023/03/24 08:10:11;;;;;;;24.50;4.43;;;10.20;99.90;;;;;;5132733;27;20043;-69
2023/03/24 08:12:37;;;;;;;23.38;4.80;;;10.20;99.90;;;;;;5135284;27;20043;-71
2023/03/24 08:15:04;;;;;;;25.00;4.80;;;10.30;99.90;;;;;;5122572;27;20043;-71
2023/03/24 08:17:29;;;;;;;23.63;4.28;;;10.30;99.90;;;;;;5131283;27;20039;-69
2023/03/24 08:19:55;;;;;;;22.08;4.30;;;10.30;99.90;;;;;;5131921;27;20044;-70
2023/03/24 08:22:21;;;;;;;29.35;5.18;;;10.40;99.90;;;;;;5118806;27;20038;-71
2023/03/24 08:24:47;;;;;;;27.35;4.55;;;10.30;99.90;;;;;;5118951;27;20027;-71
2023/03/24 08:27:12;;;;;;;24.65;4.43;;;10.40;99.90;;;;;;5114622;27;20040;-70
2023/03/24 08:29:38;;;;;;;25.50;4.13;;;10.40;99.90;;;;;;5124683;27;20058;-71
2023/03/24 08:32:04;;;;;;;29.98;4.38;;;10.50;99.90;;;;;;5117735;27;20046;-71
2023/03/24 08:34:29;;;;;;;31.05;5.35;;;10.60;99.90;;;;;;5097933;27;20050;-71
2023/03/24 08:36:55;;;;;;;29.05;5.35;;;10.70;99.90;;;;;;5095828;28;20095;-72
2023/03/24 08:39:23;;;;;;;17.52;2.80;;;10.80;99.90;;;;;;5113193;28;20040;-71
2023/03/24 08:41:49;;;;;;;24.23;4.65;;;10.90;99.90;;;;;;5113828;27;20050;-70
2023/03/24 08:44:15;;;;;;;23.65;4.13;;;11.00;99.90;;;;;;5126304;27;20047;-72
2023/03/24 08:46:41;;;;;;;21.88;3.97;;;11.10;99.90;;;;;;5121896;27;20047;-71
2023/03/24 08:49:07;;;;;;;25.23;4.18;;;11.30;99.90;;;;;;5094140;27;20047;-72
2023/03/24 08:51:34;;;;;;;20.52;4.05;;;11.40;99.90;;;;;;5125615;27;20047;-72
2023/03/24 08:54:00;;;;;;;21.40;4.00;;;11.50;99.90;;;;;;5114735;27;20051;-71
2023/03/24 08:56:26;;;;;;;17.25;3.70;;;11.60;99.90;;;;;;5115004;27;20084;-71
2023/03/24 08:58:52;;;;;;;24.58;4.60;;;11.50;99.90;;;;;;5114613;27;20036;-73
2023/03/24 09:01:20;;;;;;;24.83;4.07;;;11.70;99.90;;;;;;5100572;27;20396;-71
2023/03/24 09:03:46;;;;;;;20.90;4.53;;;11.90;99.90;;;;;;5124532;27;20031;-73
2023/03/24 09:06:11;;;;;;;21.50;4.30;;;12.10;99.90;;;;;;5120696;27;20489;-70
2023/03/24 09:08:37;;;;;;;28.40;4.90;;;12.40;99.90;;;;;;5125596;27;20400;-73
2023/03/24 09:11:04;;;;;;;15.73;4.00;;;12.50;99.90;;;;;;5127831;27;20039;-71
2023/03/24 09:13:30;;;;;;;22.38;4.22;;;12.60;99.90;;;;;;5113740;28;20532;-70
2023/03/24 09:16:01;;;;;;;18.48;3.90;;;12.70;99.90;;;;;;5125712;27;20039;-72
2023/03/24 09:18:27;;;;;;;18.13;4.47;;;12.80;99.90;;;;;;5133570;27;20035;-71
2023/03/24 09:20:53;;;;;;;23.52;3.60;;;13.10;99.90;;;;;;5120999;27;20119;-72
2023/03/24 09:23:20;;;;;;;23.35;3.92;;;13.20;99.90;;;;;;5113257;27;20134;-72
2023/03/24 09:25:48;;;;;;;20.27;3.65;;;13.30;99.90;;;;;;5126786;27;20036;-71
2023/03/24 09:28:15;;;;;;;18.35;4.15;;;13.40;99.90;;;;;;5113710;28;20043;-71
2023/03/24 09:30:41;;;;;;;17.48;5.03;;;13.60;99.90;;;;;;5113039;27;20040;-72
2023/03/24 09:33:07;;;;;;;17.08;3.95;;;13.80;99.90;;;;;;5113668;28;20075;-71
2023/03/24 09:35:32;;;;;;;23.58;4.80;;;13.90;99.90;;;;;;5114323;27;20078;-72
2023/03/24 09:37:58;;;;;;;23.73;4.65;;;13.90;99.90;;;;;;5122422;27;20039;-72
2023/03/24 09:40:27;;;;;;;16.75;4.13;;;13.80;99.90;;;;;;5121563;27;20039;-72
2023/03/24 09:43:07;;;;;;;24.67;4.20;;;13.60;99.90;;;;;;5126711;27;20542;-73
2023/03/24 09:45:36;;;;;;;17.27;3.78;;;13.30;99.90;;;;;;5115116;28;20492;-72
2023/03/24 09:48:04;;;;;;;18.73;4.47;;;13.20;99.90;;;;;;5113729;28;20078;-72
2023/03/24 09:50:33;;;;;;;22.08;4.85;;;13.00;99.90;;;;;;5117900;27;20488;-70
2023/03/24 09:53:05;;;;;;;25.40;4.65;;;12.80;99.90;;;;;;5119880;27;20047;-71
2023/03/24 09:55:31;;;;;;;19.25;4.20;;;12.80;99.90;;;;;;5122665;27;20043;-70
2023/03/24 09:58:07;;;;;;;20.65;3.95;;;12.70;99.90;;;;;;5122610;27;20040;-72
2023/03/24 10:00:35;;;;;;;19.58;3.88;;;12.80;99.90;;;;;;5144449;27;20165;-72
2023/03/24 10:03:20;;;;;;;14.10;3.80;;;12.80;99.90;;;;;;5125120;27;20096;-72
2023/03/24 10:06:12;;;;;;;19.38;4.25;;;12.80;99.90;;;;;;5118686;27;20044;-71
2023/03/24 10:08:45;;;;;;;23.98;4.03;;;12.70;99.90;;;;;;5118200;27;20063;-71
2023/03/24 10:11:49;;;;;;;19.85;4.18;;;12.70;99.90;;;;;;5120786;27;20118;-71
2023/03/24 10:14:27;;;;;;;16.23;3.38;;;12.50;99.90;;;;;;5024913;28;20411;-72
2023/03/24 10:16:56;;;;;;;23.40;3.75;;;12.80;99.90;;;;;;5028348;28;20041;-71
2023/03/24 10:19:56;;;;;;;11.57;3.13;;;13.20;99.90;;;;;;5074933;27;20572;-71
2023/03/24 10:22:29;;;;;;;18.48;4.20;;;13.40;99.90;;;;;;5112546;27;20081;-71
2023/03/24 10:24:57;;;;;;;21.65;4.05;;;13.50;99.90;;;;;;5128800;28;20074;-72
2023/03/24 10:27:35;;;;;;;19.75;3.85;;;13.50;99.90;;;;;;5131793;27;20042;-72
2023/03/24 10:30:14;;;;;;;22.05;4.00;;;13.50;99.90;;;;;;5111875;28;20037;-72
2023/03/24 10:32:41;;;;;;;23.50;4.18;;;13.30;99.90;;;;;;5130149;27;20075;-73
2023/03/24 10:35:34;;;;;;;19.15;3.63;;;13.40;99.90;;;;;;5114599;27;20036;-71
2023/03/24 10:38:03;;;;;;;18.95;4.13;;;13.80;99.90;;;;;;5121611;27;20083;-71
2023/03/24 10:40:32;;;;;;;18.20;3.72;;;14.40;99.90;;;;;;5130656;28;20399;-71
2023/03/24 10:43:00;;;;;;;22.48;4.15;;;14.80;99.90;;;;;;5129401;27;20099;-71
2023/03/24 10:45:31;;;;;;;18.25;4.22;;;15.20;99.90;;;;;;5109578;27;20749;-69
2023/03/24 10:48:00;;;;;;;23.70;3.88;;;15.60;99.90;;;;;;5113392;27;20512;-71
2023/03/24 10:50:28;;;;;;;16.80;3.50;;;16.00;99.90;;;;;;5127933;28;20452;-71
2023/03/24 10:52:54;;;;;;;19.20;3.95;;;16.30;99.90;;;;;;5113208;27;20085;-72
2023/03/24 10:55:27;;;;;;;12.10;3.53;;;16.60;99.90;;;;;;5113894;27;20051;-72
2023/03/24 10:57:56;;;;;;;19.45;3.38;;;16.80;99.90;;;;;;5128238;27;20081;-72
2023/03/24 11:00:33;;;;;;;13.57;3.65;;;17.00;99.90;;;;;;5097841;28;20036;-72
2023/03/24 11:03:00;;;;;;;13.00;3.97;;;17.10;99.90;;;;;;5105173;27;20043;-73
2023/03/24 11:05:32;;;;;;;17.65;3.17;;;17.60;99.90;;;;;;5123279;27;20436;-71
2023/03/24 11:08:18;;;;;;;14.23;3.15;;;17.90;99.90;;;;;;5111883;28;20040;-72
2023/03/24 11:10:44;;;;;;;11.60;3.13;;;18.00;99.90;;;;;;5111495;27;20048;-71
2023/03/24 11:13:27;;;;;;;14.35;3.90;;;18.20;99.90;;;;;;5117701;27;20035;-71
2023/03/24 11:16:12;;;;;;;16.88;3.85;;;18.10;99.90;;;;;;5126434;28;20110;-71
2023/03/24 11:18:57;;;;;;;12.75;3.65;;;17.90;99.50;;;;;;5127242;28;20039;-72
2023/03/24 11:21:23;;;;;;;20.65;3.88;;;17.90;99.90;;;;;;5126629;28;20044;-72
2023/03/24 11:23:49;;;;;;;13.32;3.05;;;17.90;99.90;;;;;;5113957;28;20053;-72
2023/03/24 11:26:21;;;;;;;14.07;3.25;;;17.80;99.80;;;;;;5102869;28;20039;-72
2023/03/24 11:28:56;;;;;;;18.88;3.63;;;17.60;99.90;;;;;;5117773;28;20546;-72
2023/03/24 11:31:30;;;;;;;14.75;3.63;;;17.50;99.90;;;;;;5131104;27;20043;-72
2023/03/24 11:34:07;;;;;;;13.85;3.08;;;17.60;98.90;;;;;;5094899;27;20043;-72
2023/03/24 11:36:41;;;;;;;14.95;3.25;;;17.90;99.90;;;;;;5132628;27;20039;-72
2023/03/24 11:39:12;;;;;;;15.32;3.60;;;18.30;98.30;;;;;;5126409;27;20039;-71
2023/03/24 11:41:41;;;;;;;17.08;3.22;;;18.10;99.90;;;;;;5103913;27;20096;-73
2023/03/24 11:44:21;;;;;;;15.70;3.47;;;17.60;97.40;;;;;;5133221;27;20069;-73
2023/03/24 11:46:54;;;;;;;10.18;2.80;;;17.30;99.00;;;;;;5134450;27;20047;-73
2023/03/24 11:49:24;;;;;;;20.73;4.47;;;17.50;99.30;;;;;;5110205;27;20043;-72
2023/03/24 11:51:53;;;;;;;16.63;4.03;;;17.40;99.90;;;;;;5108575;27;20063;-72
2023/03/24 11:54:23;;;;;;;14.88;3.55;;;17.90;99.90;;;;;;5097260;27;20051;-72
2023/03/24 11:56:53;;;;;;;17.60;3.72;;;17.70;99.90;;;;;;5129553;27;20042;-72
2023/03/24 11:59:41;;;;;;;14.40;3.42;;;17.30;99.60;;;;;;5107208;27;20639;-72
2023/03/24 12:02:06;;;;;;;12.43;3.25;;;17.00;97.00;;;;;;5145285;27;20043;-71
2023/03/24 12:04:48;;;;;;;15.70;3.20;;;17.10;97.20;;;;;;5102613;27;20054;-72
2023/03/24 12:07:38;;;;;;;13.95;4.05;;;17.60;98.70;;;;;;5110502;27;20118;-70
2023/03/24 12:10:13;;;;;;;17.80;3.83;;;17.90;97.60;;;;;;5127818;27;20036;-71
2023/03/24 12:13:04;;;;;;;12.90;2.90;;;17.90;96.20;;;;;;5118521;27;20096;-71
2023/03/24 12:16:07;;;;;;;15.23;3.30;;;17.90;95.80;;;;;;5118802;27;20040;-72
2023/03/24 12:18:50;;;;;;;15.93;3.85;;;17.80;95.20;;;;;;5100629;27;20644;-71
2023/03/24 12:21:40;;;;;;;15.65;3.22;;;17.40;95.70;;;;;;5124692;27;20050;-71
2023/03/24 12:24:17;;;;;;;15.00;3.80;;;17.00;95.80;;;;;;5127514;27;20465;-71
2023/03/24 12:26:42;;;;;;;13.52;3.28;;;16.90;97.00;;;;;;5116158;27;20138;-71
2023/03/24 12:29:53;;;;;;;14.95;3.33;;;16.70;97.70;;;;;;5156157;27;20129;-71
2023/03/24 12:32:36;;;;;;;16.70;3.78;;;16.40;96.90;;;;;;5125554;27;20085;-73
2023/03/24 12:35:20;;;;;;;17.45;3.60;;;16.10;98.00;;;;;;5121502;27;20573;-72
2023/03/24 12:38:12;;;;;;;14.93;3.30;;;16.40;98.70;;;;;;5127792;27;20457;-73
2023/03/24 12:40:58;;;;;;;13.38;3.50;;;17.00;99.50;;;;;;5111218;27;20393;-72
2023/03/24 12:43:42;;;;;;;12.27;3.22;;;17.50;96.90;;;;;;5131356;27;20534;-72
2023/03/24 12:46:17;;;;;;;14.45;3.10;;;17.30;97.40;;;;;;5128106;27;20522;-71
2023/03/24 12:49:06;;;;;;;16.95;3.25;;;17.30;98.70;;;;;;5133850;27;20073;-72
2023/03/24 12:51:34;;;;;;;;;;;17.80;97.80;;;;;;5124459;27;20350;-70
2023/03/24 12:54:35;;;;;;;18.17;3.43;;;18.30;95.90;;;;;;5125612;27;20357;-72
2023/03/24 12:57:10;;;;;;;14.82;2.72;;;18.30;96.40;;;;;;5123182;27;20734;-72
2023/03/24 12:59:45;;;;;;;15.38;3.40;;;18.40;97.00;;;;;;5123814;27;20491;-71
2023/03/24 13:02:36;;;;;;;18.65;3.17;;;18.00;95.70;;;;;;5096325;28;20051;-72
2023/03/24 13:05:06;;;;;;;16.60;3.25;;;17.40;97.30;;;;;;5114172;28;20093;-71